Jefferson, Pennsylvania
Current Conditions -  °F | °C
As of 3:35 PM on Friday 21 Nov 2014 (Local Time) from KAFJ Reporting Station
Clear Clear  
Wind Chill: 20°   Ceiling: Unl
Heat Index: 28°   Visibility: 10mi
Dew Point:   Wind: 9mph
Humidity: 40%   Direction: 250°WSW
Pressure: 30.47"   Gusts: NA
Location:  39.93°N, 80.06°W
Report Text: KAFJ 212035Z 25008KT 10SM CLR M02/M14 A3047 RMK AO1
Loading
Personal Weather Stations






























Interactive Weather Map New forecast layout! Learn more

10-Day Weather Forecast

Advertisements
Track Severe Weather on mobile